TimeEDT,TemperatureF,Dew PointF,Humidity,Sea Level PressureIn,VisibilityMPH,Wind Direction,Wind SpeedMPH,Gust SpeedMPH,PrecipitationIn,Events,Conditions,WindDirDegrees,DateUTC
12:56 AM,78.1,75.0,90,30.19,10.0,SW,6.9,-,N/A,,Clear,220,2012-10-04 04:56:00
1:56 AM,77.0,75.0,94,30.19,9.0,WSW,5.8,-,N/A,,Clear,240,2012-10-04 05:56:00
2:56 AM,77.0,73.9,90,30.18,9.0,SW,5.8,-,N/A,,Clear,220,2012-10-04 06:56:00
3:56 AM,75.9,73.9,94,30.17,8.0,WSW,3.5,-,N/A,,Clear,240,2012-10-04 07:56:00
4:56 AM,75.9,73.0,91,30.19,8.0,SW,5.8,-,N/A,,Clear,220,2012-10-04 08:56:00
5:56 AM,75.0,72.0,90,30.20,6.0,SW,3.5,-,N/A,,Clear,220,2012-10-04 09:56:00
6:56 AM,75.0,72.0,90,30.21,5.0,SSW,3.5,-,0.01,,Clear,210,2012-10-04 10:56:00
7:56 AM,75.9,73.0,91,30.22,4.0,Calm,Calm,-,N/A,,Clear,0,2012-10-04 11:56:00
8:56 AM,75.9,73.0,91,30.22,8.0,North,-9999.0,-,N/A,,Clear,0,2012-10-04 12:56:00
9:56 AM,80.1,72.0,76,30.23,10.0,North,-9999.0,-,N/A,,Clear,0,2012-10-04 13:56:00
10:56 AM,82.0,70.0,67,30.23,10.0,North,-9999.0,-,N/A,,Clear,0,2012-10-04 14:56:00
11:56 AM,84.0,69.1,61,30.22,10.0,North,-9999.0,-,N/A,,Partly Cloudy,0,2012-10-04 15:56:00
12:56 PM,82.9,69.1,63,30.20,10.0,North,-9999.0,-,N/A,,Partly Cloudy,0,2012-10-04 16:56:00
1:56 PM,84.9,69.1,59,30.18,10.0,North,-9999.0,-,N/A,,Mostly Cloudy,0,2012-10-04 17:56:00
2:56 PM,84.0,69.1,61,30.16,10.0,North,-9999.0,-,N/A,,Partly Cloudy,0,2012-10-04 18:56:00
3:56 PM,84.9,68.0,57,30.16,9.0,North,-9999.0,-,N/A,,Clear,0,2012-10-04 19:56:00
4:56 PM,84.0,68.0,58,30.15,10.0,North,-9999.0,-,N/A,,Clear,0,2012-10-04 20:56:00
5:45 PM,84.2,68.0,58,30.14,10.0,North,-9999.0,-,N/A,,Partly Cloudy,0,2012-10-04 21:45:00
5:56 PM,82.9,68.0,60,30.15,10.0,North,-9999.0,-,N/A,,Clear,0,2012-10-04 21:56:00
6:56 PM,79.0,72.0,79,30.15,10.0,North,-9999.0,-,N/A,,Clear,0,2012-10-04 22:56:00
7:56 PM,78.1,73.0,84,30.15,10.0,North,-9999.0,-,N/A,,Clear,0,2012-10-04 23:56:00
8:56 PM,78.1,70.0,76,30.16,10.0,North,-9999.0,-,N/A,,Partly Cloudy,0,2012-10-05 00:56:00
9:56 PM,77.0,70.0,79,30.17,10.0,North,-9999.0,-,N/A,,Scattered Clouds,0,2012-10-05 01:56:00
10:56 PM,75.9,68.0,76,30.18,10.0,North,-9999.0,-,N/A,,Partly Cloudy,0,2012-10-05 02:56:00
11:56 PM,75.0,68.0,79,30.17,10.0,North,-9999.0,-,N/A,,Clear,0,2012-10-05 03:56:00